TimeCST,TemperatureF,Dew PointF,Humidity,Sea Level PressureIn,VisibilityMPH,Wind Direction,Wind SpeedMPH,Gust SpeedMPH,PrecipitationIn,Events,Conditions,WindDirDegrees,DateUTC
12:53 AM,60.1,57.9,93,29.97,10.0,Calm,Calm,-,N/A,,Overcast,0,2013-02-08 06:53:00
1:42 AM,60.8,59.0,94,29.96,10.0,South,3.5,-,N/A,,Overcast,180,2013-02-08 07:42:00
1:53 AM,60.1,59.0,96,29.97,10.0,South,3.5,-,N/A,,Overcast,190,2013-02-08 07:53:00
2:53 AM,59.0,57.0,93,29.97,9.0,Calm,Calm,-,N/A,,Overcast,0,2013-02-08 08:53:00
3:53 AM,57.9,57.0,97,29.98,7.0,Calm,Calm,-,N/A,,Partly Cloudy,0,2013-02-08 09:53:00
4:06 AM,57.2,55.4,94,29.97,6.0,Calm,Calm,-,N/A,,Mostly Cloudy,0,2013-02-08 10:06:00
4:19 AM,57.2,57.2,100,29.97,7.0,Calm,Calm,-,N/A,,Overcast,0,2013-02-08 10:19:00
4:53 AM,59.0,57.9,96,29.99,7.0,Variable,3.5,-,N/A,,Overcast,0,2013-02-08 10:53:00
5:21 AM,60.8,57.2,88,29.99,7.0,West,4.6,-,N/A,,Overcast,280,2013-02-08 11:21:00
5:53 AM,60.1,57.9,93,30.01,9.0,NW,10.4,-,N/A,,Overcast,310,2013-02-08 11:53:00
6:53 AM,60.1,57.0,90,30.04,10.0,WNW,9.2,-,N/A,,Overcast,300,2013-02-08 12:53:00
7:05 AM,60.8,57.2,88,30.04,9.0,WNW,9.2,-,N/A,,Overcast,300,2013-02-08 13:05:00
7:53 AM,59.0,57.0,93,30.07,7.0,NW,10.4,-,N/A,,Overcast,310,2013-02-08 13:53:00
8:01 AM,59.0,57.2,94,30.06,7.0,NW,11.5,-,N/A,,Overcast,320,2013-02-08 14:01:00
8:53 AM,59.0,57.0,93,30.10,6.0,NNW,11.5,-,N/A,,Overcast,340,2013-02-08 14:53:00
9:02 AM,60.8,57.2,88,30.09,8.0,NNW,11.5,-,N/A,,Overcast,340,2013-02-08 15:02:00
9:45 AM,60.8,53.6,77,30.11,10.0,North,12.7,-,N/A,,Overcast,10,2013-02-08 15:45:00
9:53 AM,60.1,54.0,80,30.13,10.0,North,12.7,17.3,N/A,,Overcast,360,2013-02-08 15:53:00
10:53 AM,60.1,53.1,78,30.16,10.0,North,11.5,18.4,N/A,,Overcast,360,2013-02-08 16:53:00
11:53 AM,59.0,53.1,81,30.16,10.0,North,6.9,-,N/A,,Overcast,10,2013-02-08 17:53:00
12:53 PM,59.0,52.0,78,30.15,10.0,NE,11.5,-,N/A,,Overcast,40,2013-02-08 18:53:00
1:53 PM,55.9,51.1,84,30.15,10.0,North,12.7,-,N/A,,Overcast,10,2013-02-08 19:53:00
2:27 PM,57.2,51.8,82,30.14,10.0,North,9.2,17.3,N/A,,Overcast,10,2013-02-08 20:27:00
2:53 PM,57.0,50.0,77,30.15,10.0,NNE,12.7,-,N/A,,Overcast,30,2013-02-08 20:53:00
3:53 PM,55.9,48.0,75,30.16,10.0,NE,10.4,-,N/A,,Overcast,50,2013-02-08 21:53:00
4:53 PM,55.9,46.9,72,30.16,10.0,NE,5.8,-,N/A,,Overcast,50,2013-02-08 22:53:00
5:45 PM,53.6,46.4,77,30.16,10.0,NE,3.5,-,N/A,,Partly Cloudy,50,2013-02-08 23:45:00
5:53 PM,54.0,46.0,75,30.18,10.0,NE,4.6,-,N/A,,Partly Cloudy,40,2013-02-08 23:53:00
6:53 PM,51.1,46.0,83,30.18,10.0,Calm,Calm,-,N/A,,Clear,0,2013-02-09 00:53:00
7:53 PM,46.9,45.0,93,30.19,10.0,NNE,3.5,-,N/A,,Scattered Clouds,20,2013-02-09 01:53:00
8:53 PM,50.0,45.0,83,30.20,10.0,NE,4.6,-,N/A,,Clear,40,2013-02-09 02:53:00
9:53 PM,48.9,43.0,80,30.21,10.0,NE,5.8,-,N/A,,Clear,40,2013-02-09 03:53:00
10:53 PM,46.9,42.1,83,30.20,10.0,NE,4.6,-,N/A,,Clear,50,2013-02-09 04:53:00
11:53 PM,46.0,41.0,83,30.19,10.0,NE,6.9,-,N/A,,Clear,50,2013-02-09 05:53:00